createdAt,value
2023-05-19T00:01:57.301Z,2.50
2023-05-19T00:04:02.956Z,2.50
2023-05-19T00:06:05.050Z,2.97
2023-05-19T00:08:10.357Z,2.85
2023-05-19T00:10:12.485Z,2.67
2023-05-19T00:12:14.517Z,2.83
2023-05-19T00:14:16.381Z,2.30
2023-05-19T00:16:18.359Z,2.72
2023-05-19T00:18:20.671Z,2.78
2023-05-19T00:20:22.497Z,3.15
2023-05-19T00:22:24.115Z,2.50
2023-05-19T00:24:25.840Z,2.78
2023-05-19T00:26:27.457Z,2.92
2023-05-19T00:28:29.047Z,2.40
2023-05-19T00:30:31.064Z,2.67
2023-05-19T00:32:33.468Z,2.50
2023-05-19T00:34:35.047Z,2.75
2023-05-19T00:36:36.682Z,3.00
2023-05-19T00:38:38.901Z,2.25
2023-05-19T00:40:40.685Z,2.72
2023-05-19T00:42:42.455Z,2.50
2023-05-19T00:44:44.032Z,2.92
2023-05-19T00:46:45.642Z,2.45
2023-05-19T00:48:47.264Z,2.63
2023-05-19T00:50:50.860Z,2.83
2023-05-19T00:52:52.457Z,2.35
2023-05-19T00:54:55.413Z,3.10
2023-05-19T00:56:58.447Z,2.60
2023-05-19T00:59:00.901Z,2.63
2023-05-19T01:01:04.249Z,2.63
2023-05-19T01:03:13.106Z,2.22
2023-05-19T01:05:14.903Z,2.83
2023-05-19T01:07:16.629Z,2.47
2023-05-19T01:09:18.462Z,2.58
2023-05-19T01:11:20.064Z,2.67
2023-05-19T01:13:21.777Z,2.83
2023-05-19T01:15:26.868Z,2.80
2023-05-19T01:17:59.267Z,2.88
2023-05-19T01:20:29.283Z,2.70
2023-05-19T01:22:55.031Z,2.70
2023-05-19T01:25:20.929Z,2.60
2023-05-19T01:27:34.662Z,2.85
2023-05-19T01:29:42.017Z,2.40
2023-05-19T01:31:47.949Z,2.78
2023-05-19T01:33:51.822Z,2.85
2023-05-19T01:35:55.606Z,2.25
2023-05-19T01:37:59.771Z,2.72
2023-05-19T01:40:01.840Z,2.40
2023-05-19T01:42:04.304Z,2.38
2023-05-19T01:44:06.416Z,2.70
2023-05-19T01:46:08.462Z,2.80
2023-05-19T01:48:11.295Z,2.50
2023-05-19T01:50:13.183Z,2.47
2023-05-19T01:52:14.801Z,2.25
2023-05-19T01:54:16.357Z,2.65
2023-05-19T01:56:27.589Z,2.42
2023-05-19T01:58:47.040Z,2.20
2023-05-19T02:03:05.733Z,2.05
2023-05-19T02:05:32.881Z,2.35
2023-05-19T02:07:44.472Z,2.15
2023-05-19T02:10:03.863Z,2.45
2023-05-19T02:12:05.496Z,2.53
2023-05-19T02:14:21.137Z,2.63
2023-05-19T02:16:28.677Z,2.13
2023-05-19T02:18:32.123Z,2.35
2023-05-19T02:20:34.051Z,2.70
2023-05-19T02:22:36.258Z,2.40
2023-05-19T02:24:37.938Z,2.40
2023-05-19T02:26:39.539Z,2.20
2023-05-19T02:28:41.068Z,2.38
2023-05-19T02:30:42.608Z,2.45
2023-05-19T02:32:46.820Z,2.25
2023-05-19T02:34:48.503Z,2.47
2023-05-19T02:36:50.645Z,2.53
2023-05-19T02:38:52.406Z,2.90
2023-05-19T02:40:54.040Z,2.47
2023-05-19T02:42:55.775Z,2.45
2023-05-19T02:44:57.506Z,3.00
2023-05-19T02:46:59.204Z,2.80
2023-05-19T02:49:00.844Z,2.72
2023-05-19T02:51:02.445Z,3.00
2023-05-19T02:53:04.448Z,2.28
2023-05-19T02:55:06.392Z,2.38
2023-05-19T02:57:08.059Z,2.40
2023-05-19T02:59:09.664Z,2.50
2023-05-19T03:01:11.094Z,2.28
2023-05-19T03:03:13.947Z,2.25
2023-05-19T03:05:15.761Z,2.30
2023-05-19T03:07:17.714Z,2.38
2023-05-19T03:09:19.348Z,2.38
2023-05-19T03:11:21.290Z,2.42
2023-05-19T03:13:22.867Z,2.35
2023-05-19T03:15:24.491Z,2.83
2023-05-19T03:17:26.267Z,2.78
2023-05-19T03:19:27.978Z,2.40
2023-05-19T03:21:30.465Z,2.72
2023-05-19T03:23:32.059Z,3.00
2023-05-19T03:25:33.627Z,2.63
2023-05-19T03:27:35.417Z,2.97
2023-05-19T03:29:37.265Z,2.85
2023-05-19T03:31:38.849Z,2.80
2023-05-19T03:33:40.569Z,2.60
2023-05-19T03:35:42.198Z,2.88
2023-05-19T03:37:43.758Z,3.10
2023-05-19T03:39:45.370Z,2.67
2023-05-19T03:41:47.057Z,3.10
2023-05-19T03:43:48.597Z,2.85
2023-05-19T03:45:50.292Z,2.53
2023-05-19T03:47:51.948Z,2.70
2023-05-19T03:49:53.567Z,2.45
2023-05-19T03:51:55.111Z,2.15
2023-05-19T03:53:59.656Z,3.13
2023-05-19T03:56:01.228Z,2.25
2023-05-19T03:58:03.397Z,2.90
2023-05-19T04:00:06.142Z,2.50
2023-05-19T04:02:08.300Z,2.20
2023-05-19T04:04:10.158Z,2.50
2023-05-19T04:06:12.941Z,2.50
2023-05-19T04:08:14.499Z,2.40
2023-05-19T04:10:16.110Z,2.70
2023-05-19T04:12:17.703Z,2.65
2023-05-19T04:14:20.298Z,2.88
2023-05-19T04:16:22.117Z,2.53
2023-05-19T04:18:23.784Z,2.63
2023-05-19T04:20:25.554Z,2.65
2023-05-19T04:22:27.149Z,2.63
2023-05-19T04:24:31.495Z,2.42
2023-05-19T04:26:34.468Z,2.85
2023-05-19T04:28:39.087Z,3.00
2023-05-19T04:30:42.548Z,3.00
2023-05-19T04:32:44.117Z,2.85
2023-05-19T04:34:46.143Z,3.17
2023-05-19T04:36:48.225Z,3.25
2023-05-19T04:38:54.689Z,3.70
2023-05-19T04:40:56.466Z,3.45
2023-05-19T04:42:58.199Z,3.38
2023-05-19T04:44:59.791Z,3.55
2023-05-19T04:47:01.429Z,4.00
2023-05-19T04:49:03.241Z,3.67
2023-05-19T04:51:05.117Z,3.25
2023-05-19T04:53:07.027Z,4.13
2023-05-19T04:55:11.311Z,3.35
2023-05-19T04:57:12.951Z,3.60
2023-05-19T04:59:14.573Z,3.83
2023-05-19T05:01:16.285Z,2.97
2023-05-19T05:03:18.753Z,3.85
2023-05-19T05:05:20.357Z,4.05
2023-05-19T05:07:22.787Z,3.58
2023-05-19T05:09:24.408Z,3.75
2023-05-19T05:11:26.759Z,3.63
2023-05-19T05:13:28.618Z,4.65
2023-05-19T05:15:30.499Z,3.97
2023-05-19T05:17:32.350Z,4.20
2023-05-19T05:19:34.521Z,3.92
2023-05-19T05:21:36.482Z,3.65
2023-05-19T05:23:38.321Z,3.92
2023-05-19T05:25:40.973Z,3.60
2023-05-19T05:27:42.645Z,3.58
2023-05-19T05:29:44.319Z,3.40
2023-05-19T05:31:45.851Z,3.20
2023-05-19T05:33:47.558Z,4.30
2023-05-19T05:35:50.573Z,4.13
2023-05-19T05:37:52.143Z,3.60
2023-05-19T05:39:53.680Z,3.65
2023-05-19T05:41:55.515Z,3.20
2023-05-19T05:43:57.112Z,3.60
2023-05-19T05:45:58.848Z,3.22
2023-05-19T05:48:00.921Z,3.05
2023-05-19T05:50:02.903Z,3.22
2023-05-19T05:52:06.529Z,3.08
2023-05-19T05:54:12.147Z,3.47
2023-05-19T05:56:14.395Z,3.15
2023-05-19T05:58:17.035Z,3.40
2023-05-19T06:00:19.320Z,3.58
2023-05-19T06:02:21.837Z,3.10
2023-05-19T06:04:23.500Z,3.95
2023-05-19T06:06:25.089Z,3.65
2023-05-19T06:08:26.690Z,3.65
2023-05-19T06:10:29.060Z,3.80
2023-05-19T06:12:30.723Z,3.13
2023-05-19T06:14:32.316Z,4.13
2023-05-19T06:16:33.981Z,3.40
2023-05-19T06:18:35.851Z,2.97
2023-05-19T06:20:41.412Z,2.90
2023-05-19T06:22:43.069Z,3.30
2023-05-19T06:24:44.683Z,3.50
2023-05-19T06:26:46.308Z,2.80
2023-05-19T06:28:47.873Z,2.58
2023-05-19T06:30:49.507Z,3.40
2023-05-19T06:32:51.122Z,2.60
2023-05-19T06:34:55.687Z,2.97
2023-05-19T06:36:57.260Z,2.78
2023-05-19T06:39:00.159Z,2.95
2023-05-19T06:41:03.521Z,2.72
2023-05-19T06:43:05.133Z,2.53
2023-05-19T06:45:07.381Z,2.22
2023-05-19T06:47:09.059Z,2.83
2023-05-19T06:49:11.312Z,3.20
2023-05-19T06:51:12.973Z,2.90
2023-05-19T06:53:14.549Z,3.20
2023-05-19T06:55:16.168Z,2.88
2023-05-19T06:57:17.762Z,2.60
2023-05-19T06:59:21.882Z,2.67
2023-05-19T07:01:23.559Z,2.45
2023-05-19T07:03:25.273Z,2.60
2023-05-19T07:05:27.070Z,2.47
2023-05-19T07:07:28.794Z,2.47
2023-05-19T07:09:30.360Z,2.50
2023-05-19T07:11:31.963Z,2.22
2023-05-19T07:13:33.637Z,2.70
2023-05-19T07:15:35.229Z,2.33
2023-05-19T07:17:36.876Z,2.75
2023-05-19T07:19:38.678Z,2.35
2023-05-19T07:21:40.284Z,1.98
2023-05-19T07:23:41.894Z,2.17
2023-05-19T07:25:46.438Z,2.38
2023-05-19T07:27:48.071Z,2.03
2023-05-19T07:29:49.617Z,2.28
2023-05-19T07:31:57.928Z,2.13
2023-05-19T07:33:59.753Z,2.22
2023-05-19T07:36:01.487Z,2.40
2023-05-19T07:38:03.916Z,2.10
2023-05-19T07:40:09.384Z,2.45
2023-05-19T07:42:10.920Z,2.38
2023-05-19T07:44:12.504Z,2.28
2023-05-19T07:46:14.175Z,2.10
2023-05-19T07:48:18.705Z,2.08
2023-05-19T07:50:20.634Z,2.20
2023-05-19T07:52:22.223Z,1.90
2023-05-19T07:54:23.772Z,2.20
2023-05-19T07:56:25.436Z,1.80
2023-05-19T07:58:27.080Z,1.73
2023-05-19T08:00:28.783Z,1.85
2023-05-19T08:02:30.514Z,2.30
2023-05-19T08:04:32.814Z,1.63
2023-05-19T08:06:35.219Z,1.70
2023-05-19T08:08:36.922Z,1.50
2023-05-19T08:10:38.547Z,1.58
2023-05-19T08:12:40.383Z,1.67
2023-05-19T08:14:41.995Z,1.70
2023-05-19T08:16:45.078Z,1.90
2023-05-19T08:18:46.694Z,1.85
2023-05-19T08:20:48.374Z,1.70
2023-05-19T08:22:50.261Z,1.60
2023-05-19T08:24:51.890Z,1.65
2023-05-19T08:26:53.655Z,1.52
2023-05-19T08:28:55.468Z,1.50
2023-05-19T08:30:57.141Z,1.30
2023-05-19T08:33:02.324Z,1.40
2023-05-19T08:35:04.382Z,1.52
2023-05-19T08:37:06.005Z,1.52
2023-05-19T08:39:07.659Z,1.40
2023-05-19T08:41:09.327Z,1.65
2023-05-19T08:43:14.045Z,1.50
2023-05-19T08:45:15.863Z,1.20
2023-05-19T08:47:17.932Z,1.30
2023-05-19T08:49:25.698Z,1.50
2023-05-19T08:51:36.761Z,1.23
2023-05-19T08:53:44.061Z,1.45
2023-05-19T08:56:11.006Z,1.20
2023-05-19T08:58:13.068Z,1.35
2023-05-19T09:00:18.221Z,1.25
2023-05-19T09:02:20.561Z,1.23
2023-05-19T09:04:22.555Z,1.65
2023-05-19T09:06:25.639Z,1.67
2023-05-19T09:08:27.700Z,1.33
2023-05-19T09:10:29.541Z,1.00
2023-05-19T09:12:31.609Z,1.60
2023-05-19T09:14:33.215Z,1.52
2023-05-19T09:16:34.894Z,1.10
2023-05-19T09:18:40.069Z,1.50
2023-05-19T09:20:43.749Z,1.17
2023-05-19T09:22:47.578Z,1.20
2023-05-19T09:24:49.501Z,1.10
2023-05-19T09:26:51.114Z,1.50
2023-05-19T09:28:58.068Z,1.10
2023-05-19T09:31:04.656Z,1.13
2023-05-19T09:33:09.924Z,1.65
2023-05-19T09:35:13.196Z,1.45
2023-05-19T09:37:14.942Z,1.20
2023-05-19T09:39:17.433Z,1.38
2023-05-19T09:41:19.781Z,1.50
2023-05-19T09:43:21.660Z,1.60
2023-05-19T09:45:23.265Z,1.42
2023-05-19T09:47:24.992Z,1.40
2023-05-19T09:49:32.696Z,1.35
2023-05-19T09:51:37.555Z,1.10
2023-05-19T09:53:39.515Z,1.30
2023-05-19T09:55:42.827Z,1.40
2023-05-19T09:57:45.386Z,1.23
2023-05-19T09:59:47.412Z,1.75
2023-05-19T10:01:49.314Z,1.42
2023-05-19T10:03:52.582Z,1.63
2023-05-19T10:05:55.004Z,1.80
2023-05-19T10:07:56.945Z,1.38
2023-05-19T10:10:00.097Z,1.40
2023-05-19T10:12:03.397Z,1.50
2023-05-19T10:14:05.510Z,1.23
2023-05-19T10:16:09.509Z,1.40
2023-05-19T10:18:12.265Z,1.67
2023-05-19T10:20:17.954Z,1.30
2023-05-19T10:22:19.504Z,1.38
2023-05-19T10:24:21.708Z,1.30
2023-05-19T10:26:24.509Z,1.38
2023-05-19T10:28:34.402Z,1.60
2023-05-19T10:30:46.474Z,1.45
2023-05-19T10:32:52.095Z,1.45
2023-05-19T10:35:05.889Z,1.30
2023-05-19T10:37:24.953Z,1.85
2023-05-19T10:39:37.680Z,1.55
2023-05-19T10:41:53.801Z,1.50
2023-05-19T10:44:35.079Z,1.50
2023-05-19T10:46:37.040Z,1.40
2023-05-19T10:48:38.609Z,1.33
2023-05-19T10:50:40.279Z,1.33
2023-05-19T10:52:42.005Z,1.40
2023-05-19T10:54:47.240Z,1.42
2023-05-19T10:56:49.023Z,1.33
2023-05-19T10:58:50.874Z,1.60
2023-05-19T11:01:00.938Z,1.23
2023-05-19T11:03:18.839Z,1.63
2023-05-19T11:05:28.798Z,1.60
2023-05-19T11:07:30.876Z,1.40
2023-05-19T11:09:40.066Z,1.70
2023-05-19T11:11:49.881Z,1.65
2023-05-19T11:13:53.111Z,1.52
2023-05-19T11:15:56.302Z,1.50
2023-05-19T11:18:01.349Z,1.58
2023-05-19T11:20:04.985Z,1.33
2023-05-19T11:22:10.900Z,1.42
2023-05-19T11:24:39.963Z,1.55
2023-05-19T11:26:45.631Z,1.05
2023-05-19T11:28:48.200Z,1.70
2023-05-19T11:30:50.816Z,1.13
2023-05-19T11:32:54.256Z,1.42
2023-05-19T11:34:57.277Z,1.20
2023-05-19T11:36:59.384Z,1.63
2023-05-19T11:39:02.543Z,1.30
2023-05-19T11:41:04.424Z,1.40
2023-05-19T11:43:06.260Z,1.42
2023-05-19T11:45:08.549Z,1.40
2023-05-19T11:47:10.727Z,1.40
2023-05-19T11:49:12.377Z,1.35
2023-05-19T11:51:14.109Z,1.40
2023-05-19T11:53:22.184Z,1.33
2023-05-19T11:55:23.807Z,1.50
2023-05-19T11:57:25.550Z,1.48
2023-05-19T11:59:36.061Z,1.08
2023-05-19T12:01:38.065Z,1.40
2023-05-19T12:03:39.906Z,1.10
2023-05-19T12:05:47.836Z,1.50
2023-05-19T12:07:51.579Z,1.20
2023-05-19T12:09:55.355Z,1.40
2023-05-19T12:11:57.135Z,1.17
2023-05-19T12:13:59.452Z,1.40
2023-05-19T12:16:01.890Z,1.13
2023-05-19T12:18:03.884Z,1.50
2023-05-19T12:20:06.717Z,1.30
2023-05-19T12:22:08.704Z,1.40
2023-05-19T12:24:11.036Z,1.25
2023-05-19T12:26:13.128Z,1.23
2023-05-19T12:28:16.411Z,1.25
2023-05-19T12:30:18.232Z,1.48
2023-05-19T12:32:26.978Z,1.30
2023-05-19T12:34:28.738Z,1.30
2023-05-19T12:36:31.993Z,1.13
2023-05-19T12:38:37.374Z,1.17
2023-05-19T12:40:42.255Z,1.60
2023-05-19T12:42:48.803Z,1.23
2023-05-19T12:44:52.584Z,1.13
2023-05-19T12:46:54.357Z,1.38
2023-05-19T12:48:59.618Z,1.25
2023-05-19T12:51:01.255Z,1.27
2023-05-19T12:53:02.907Z,1.33
2023-05-19T12:55:06.953Z,1.33
2023-05-19T12:57:10.997Z,1.23
2023-05-19T12:59:54.851Z,1.10
2023-05-19T13:01:43.091Z,1.20
2023-05-19T13:03:46.002Z,1.23
2023-05-19T13:05:49.805Z,1.70
2023-05-19T13:08:11.743Z,1.40
2023-05-19T13:10:13.477Z,1.17
2023-05-19T13:12:15.036Z,1.02
2023-05-19T13:14:18.714Z,1.40
2023-05-19T13:16:20.367Z,1.15
2023-05-19T13:18:22.010Z,1.17
2023-05-19T13:20:26.301Z,1.42
2023-05-19T13:22:29.242Z,1.02
2023-05-19T13:24:30.894Z,1.10
2023-05-19T13:26:32.487Z,1.40
2023-05-19T13:28:34.870Z,1.15
2023-05-19T13:30:39.010Z,1.00
2023-05-19T13:32:40.800Z,0.93
2023-05-19T13:34:42.362Z,1.08
2023-05-19T13:36:48.132Z,1.35
2023-05-19T13:38:49.864Z,1.25
2023-05-19T13:40:51.448Z,1.10
2023-05-19T13:42:53.279Z,1.60
2023-05-19T13:44:56.406Z,1.42
2023-05-19T13:46:58.142Z,1.58
2023-05-19T13:48:59.785Z,1.30
2023-05-19T13:51:01.404Z,1.58
2023-05-19T13:53:03.738Z,1.25
2023-05-19T13:55:07.075Z,1.17
2023-05-19T13:57:08.754Z,1.60
2023-05-19T13:59:10.372Z,1.40
2023-05-19T14:01:15.123Z,1.25
2023-05-19T14:03:19.608Z,1.98
2023-05-19T14:05:21.389Z,0.95
2023-05-19T14:07:23.017Z,1.40
2023-05-19T14:09:24.730Z,1.45
2023-05-19T14:11:26.410Z,1.30
2023-05-19T14:13:34.260Z,1.50
2023-05-19T14:15:38.214Z,1.40
2023-05-19T14:17:40.141Z,1.10
2023-05-19T14:19:42.101Z,1.63
2023-05-19T14:21:43.700Z,1.20
2023-05-19T14:23:45.372Z,1.20
2023-05-19T14:25:47.042Z,1.40
2023-05-19T14:27:48.621Z,1.40
2023-05-19T14:29:50.391Z,1.60
2023-05-19T14:31:52.558Z,1.25
2023-05-19T14:33:57.211Z,1.30
2023-05-19T14:36:00.301Z,1.42
2023-05-19T14:38:01.858Z,1.25
2023-05-19T14:40:04.523Z,1.52
2023-05-19T14:42:06.107Z,1.20
2023-05-19T14:44:07.651Z,1.48
2023-05-19T14:46:09.362Z,1.23
2023-05-19T14:48:11.999Z,1.13
2023-05-19T14:50:13.638Z,1.23
2023-05-19T14:52:15.372Z,1.42
2023-05-19T14:54:17.060Z,1.60
2023-05-19T14:56:18.614Z,1.23
2023-05-19T14:58:28.851Z,1.35
2023-05-19T15:00:31.116Z,1.30
2023-05-19T15:02:32.822Z,1.20
2023-05-19T15:04:36.841Z,1.30
2023-05-19T15:06:38.529Z,1.25
2023-05-19T15:08:41.414Z,1.35
2023-05-19T15:10:43.036Z,1.10
2023-05-19T15:12:44.648Z,1.30
2023-05-19T15:14:46.745Z,1.58
2023-05-19T15:16:48.393Z,1.20
2023-05-19T15:18:51.577Z,1.40
2023-05-19T15:20:53.241Z,1.40
2023-05-19T15:22:54.797Z,1.30
2023-05-19T15:24:56.388Z,1.30
2023-05-19T15:26:58.019Z,1.20
2023-05-19T15:28:59.616Z,0.98
2023-05-19T15:31:01.358Z,1.15
2023-05-19T15:33:03.035Z,1.67
2023-05-19T15:35:04.983Z,1.20
2023-05-19T15:37:06.524Z,1.60
2023-05-19T15:39:08.126Z,1.40
2023-05-19T15:41:10.214Z,1.25
2023-05-19T15:43:11.826Z,1.40
2023-05-19T15:45:13.421Z,1.20
2023-05-19T15:47:15.002Z,1.40
2023-05-19T15:49:17.980Z,1.45
2023-05-19T15:51:19.575Z,1.30
2023-05-19T15:53:21.253Z,1.13
2023-05-19T15:55:22.840Z,1.25
2023-05-19T15:57:24.942Z,1.40
2023-05-19T15:59:26.559Z,1.25
2023-05-19T16:01:28.530Z,1.25
2023-05-19T16:03:30.494Z,1.70
2023-05-19T16:05:32.231Z,1.20
2023-05-19T16:07:33.848Z,1.00
2023-05-19T16:09:35.416Z,1.25
2023-05-19T16:11:37.052Z,1.33
2023-05-19T16:13:38.635Z,1.95
2023-05-19T16:15:40.594Z,1.70
2023-05-19T16:17:42.558Z,1.38
2023-05-19T16:19:44.230Z,1.30
2023-05-19T16:21:45.883Z,1.50
2023-05-19T16:23:47.479Z,1.13
2023-05-19T16:25:49.089Z,1.15
2023-05-19T16:27:51.507Z,1.60
2023-05-19T16:29:53.234Z,1.85
2023-05-19T16:31:54.842Z,1.25
2023-05-19T16:33:56.544Z,1.40
2023-05-19T16:35:59.883Z,1.00
2023-05-19T16:38:01.422Z,1.45
2023-05-19T16:40:03.236Z,1.50
2023-05-19T16:42:05.217Z,1.38
2023-05-19T16:44:06.774Z,1.35
2023-05-19T16:46:09.860Z,1.20
2023-05-19T16:48:11.581Z,1.40
2023-05-19T16:50:13.194Z,1.35
2023-05-19T16:52:14.844Z,1.48
2023-05-19T16:54:16.417Z,1.30
2023-05-19T16:56:17.972Z,1.48
2023-05-19T16:58:19.623Z,1.60
2023-05-19T17:00:21.249Z,1.33
2023-05-19T17:02:22.859Z,1.40
2023-05-19T17:04:24.492Z,1.23
2023-05-19T17:06:26.107Z,1.35
2023-05-19T17:08:27.987Z,1.40
2023-05-19T17:10:29.516Z,1.20
2023-05-19T17:12:31.149Z,1.20
2023-05-19T17:14:32.685Z,1.20
2023-05-19T17:16:35.780Z,1.30
2023-05-19T17:18:37.535Z,1.33
2023-05-19T17:20:39.199Z,1.20
2023-05-19T17:22:41.123Z,1.38
2023-05-19T17:24:42.785Z,0.93
2023-05-19T17:26:44.572Z,1.38
2023-05-19T17:28:46.136Z,1.48
2023-05-19T17:30:47.953Z,1.00
2023-05-19T17:32:49.840Z,1.38
2023-05-19T17:34:51.687Z,1.25
2023-05-19T17:36:53.302Z,1.23
2023-05-19T17:38:54.948Z,1.23
2023-05-19T17:41:04.575Z,1.15
2023-05-19T17:43:08.171Z,1.13
2023-05-19T17:45:12.398Z,1.33
2023-05-19T17:47:14.099Z,1.20
2023-05-19T17:49:15.776Z,1.35
2023-05-19T17:51:17.508Z,1.00
2023-05-19T17:53:19.432Z,1.10
2023-05-19T17:55:21.382Z,1.30
2023-05-19T17:57:25.880Z,1.15
2023-05-19T17:59:27.692Z,1.13
2023-05-19T18:01:29.622Z,1.60
2023-05-19T18:03:31.795Z,1.40
2023-05-19T18:05:34.210Z,1.20
2023-05-19T18:07:39.563Z,1.20
2023-05-19T18:09:47.756Z,1.02
2023-05-19T18:11:49.318Z,1.27
2023-05-19T18:13:50.891Z,1.40
2023-05-19T18:15:52.901Z,1.20
2023-05-19T18:17:54.603Z,1.10
2023-05-19T18:19:56.256Z,1.20
2023-05-19T18:21:57.857Z,1.30
2023-05-19T18:24:02.963Z,1.20
2023-05-19T18:26:04.553Z,1.27
2023-05-19T18:28:06.232Z,1.10
2023-05-19T18:30:08.177Z,1.30
2023-05-19T18:32:10.006Z,1.50
2023-05-19T18:34:14.019Z,1.30
2023-05-19T18:36:16.580Z,1.30
2023-05-19T18:38:18.282Z,1.33
2023-05-19T18:40:19.850Z,1.10
2023-05-19T18:42:21.957Z,1.35
2023-05-19T18:44:23.516Z,1.23
2023-05-19T18:46:25.293Z,1.40
2023-05-19T18:48:27.151Z,1.10
2023-05-19T18:50:28.718Z,1.55
2023-05-19T18:52:31.325Z,1.10
2023-05-19T18:54:32.924Z,1.10
2023-05-19T18:56:35.438Z,1.27
2023-05-19T18:58:37.000Z,1.30
2023-05-19T19:00:38.628Z,1.25
2023-05-19T19:02:40.273Z,1.05
2023-05-19T19:04:41.967Z,1.25
2023-05-19T19:06:43.945Z,1.33
2023-05-19T19:08:45.725Z,1.33
2023-05-19T19:10:50.376Z,1.13
2023-05-19T19:12:52.005Z,1.30
2023-05-19T19:14:53.727Z,1.30
2023-05-19T19:16:55.342Z,1.33
2023-05-19T19:18:59.299Z,1.25
2023-05-19T19:21:02.553Z,1.33
2023-05-19T19:23:06.504Z,1.40
2023-05-19T19:25:08.595Z,1.40
2023-05-19T19:27:10.514Z,1.20
2023-05-19T19:29:12.164Z,1.02
2023-05-19T19:31:13.812Z,1.10
2023-05-19T19:33:15.551Z,1.63
2023-05-19T19:35:17.214Z,1.27
2023-05-19T19:37:19.092Z,1.25
2023-05-19T19:39:20.778Z,1.15
2023-05-19T19:41:22.368Z,1.30
2023-05-19T19:43:24.053Z,1.08
2023-05-19T19:45:25.694Z,1.20
2023-05-19T19:47:27.536Z,1.20
2023-05-19T19:49:29.138Z,1.40
2023-05-19T19:51:31.627Z,1.23
2023-05-19T19:53:33.247Z,1.10
2023-05-19T19:55:34.885Z,1.00
2023-05-19T19:57:36.886Z,1.30
2023-05-19T19:59:38.473Z,1.30
2023-05-19T20:01:40.174Z,1.48
2023-05-19T20:03:42.009Z,1.30
2023-05-19T20:05:44.022Z,1.58
2023-05-19T20:07:45.648Z,1.63
2023-05-19T20:09:49.535Z,1.33
2023-05-19T20:11:51.098Z,1.50
2023-05-19T20:13:53.253Z,1.10
2023-05-19T20:15:55.140Z,1.13
2023-05-19T20:17:56.794Z,1.70
2023-05-19T20:19:59.899Z,1.50
2023-05-19T20:22:01.452Z,1.40
2023-05-19T20:24:03.055Z,1.33
2023-05-19T20:28:11.587Z,1.50
2023-05-19T20:30:13.135Z,1.38
2023-05-19T20:32:14.740Z,1.60
2023-05-19T20:34:16.381Z,1.40
2023-05-19T20:36:17.984Z,1.40
2023-05-19T20:38:19.603Z,1.30
2023-05-19T20:40:21.175Z,1.58
2023-05-19T20:42:22.792Z,1.25
2023-05-19T20:44:24.372Z,1.45
2023-05-19T20:46:26.236Z,1.30
2023-05-19T20:48:27.882Z,1.50
2023-05-19T20:50:29.657Z,1.55
2023-05-19T20:52:32.252Z,1.65
2023-05-19T20:54:33.846Z,1.40
2023-05-19T20:56:35.414Z,1.40
2023-05-19T20:58:37.609Z,1.13
2023-05-19T21:00:39.295Z,1.40
2023-05-19T21:02:41.046Z,1.30
2023-05-19T21:04:42.661Z,1.40
2023-05-19T21:06:44.266Z,1.27
2023-05-19T21:08:46.043Z,1.55
2023-05-19T21:10:47.622Z,1.33
2023-05-19T21:12:49.401Z,1.42
2023-05-19T21:14:51.837Z,1.63
2023-05-19T21:16:56.750Z,1.35
2023-05-19T21:18:58.501Z,1.58
2023-05-19T21:21:02.996Z,1.60
2023-05-19T21:23:04.848Z,1.40
2023-05-19T21:25:06.810Z,1.30
2023-05-19T21:27:08.386Z,1.30
2023-05-19T21:29:10.177Z,1.55
2023-05-19T21:31:11.846Z,1.55
2023-05-19T21:33:13.498Z,1.17
2023-05-19T21:35:15.200Z,1.58
2023-05-19T21:37:17.675Z,1.65
2023-05-19T21:39:19.354Z,1.30
2023-05-19T21:41:21.698Z,1.48
2023-05-19T21:43:23.356Z,1.30
2023-05-19T21:45:24.922Z,1.33
2023-05-19T21:47:26.540Z,1.38
2023-05-19T21:49:28.486Z,1.63
2023-05-19T21:51:30.056Z,1.17
2023-05-19T21:53:32.760Z,1.30
2023-05-19T21:55:34.345Z,1.27
2023-05-19T21:57:35.905Z,1.33
2023-05-19T21:59:37.464Z,1.15
2023-05-19T22:01:42.358Z,1.58
2023-05-19T22:03:44.961Z,1.58
2023-05-19T22:05:53.384Z,1.58
2023-05-19T22:07:55.074Z,1.50
2023-05-19T22:09:56.808Z,1.10
2023-05-19T22:11:58.406Z,1.50
2023-05-19T22:14:00.193Z,1.60
2023-05-19T22:16:04.459Z,1.40
2023-05-19T22:18:06.911Z,1.42
2023-05-19T22:20:09.514Z,1.30
2023-05-19T22:22:14.155Z,1.30
2023-05-19T22:24:18.518Z,1.67
2023-05-19T22:26:20.112Z,1.48
2023-05-19T22:28:23.787Z,1.38
2023-05-19T22:30:25.738Z,1.63
2023-05-19T22:32:27.373Z,1.20
2023-05-19T22:34:31.618Z,1.60
2023-05-19T22:36:33.265Z,1.42
2023-05-19T22:38:34.896Z,1.23
2023-05-19T22:40:36.693Z,1.60
2023-05-19T22:42:38.438Z,1.60
2023-05-19T22:44:40.053Z,1.20
2023-05-19T22:46:44.168Z,1.60
2023-05-19T22:48:45.821Z,1.50
2023-05-19T22:50:47.429Z,1.48
2023-05-19T22:52:49.085Z,1.15
2023-05-19T22:54:50.679Z,1.23
2023-05-19T22:56:52.715Z,1.30
2023-05-19T22:58:54.258Z,1.35
2023-05-19T23:00:56.184Z,1.10
2023-05-19T23:02:58.465Z,1.25
2023-05-19T23:05:00.195Z,1.73
2023-05-19T23:07:02.183Z,1.60
2023-05-19T23:09:04.532Z,1.30
2023-05-19T23:11:06.175Z,1.30
2023-05-19T23:13:09.572Z,1.40
2023-05-19T23:15:11.394Z,1.40
2023-05-19T23:17:13.138Z,1.38
2023-05-19T23:19:15.443Z,1.35
2023-05-19T23:21:17.166Z,1.20
2023-05-19T23:23:18.998Z,1.63
2023-05-19T23:25:20.659Z,1.40
2023-05-19T23:27:22.261Z,1.33
2023-05-19T23:29:23.890Z,1.65
2023-05-19T23:31:25.558Z,1.42
2023-05-19T23:33:27.115Z,2.00
2023-05-19T23:35:28.668Z,1.63
2023-05-19T23:37:30.403Z,1.60
2023-05-19T23:39:32.053Z,1.48
2023-05-19T23:41:33.764Z,1.60
2023-05-19T23:43:35.512Z,1.63
2023-05-19T23:45:37.082Z,1.67
2023-05-19T23:47:38.829Z,1.85
2023-05-19T23:49:40.646Z,2.55
2023-05-19T23:51:42.370Z,1.52
2023-05-19T23:53:43.928Z,1.27
2023-05-19T23:55:46.052Z,1.50
2023-05-19T23:57:47.640Z,1.67
2023-05-19T23:59:49.225Z,1.23
